Time;durP1;ratioP1;P1;durP2;ratioP2;P2;SDS_P1;SDS_P2;PMS_P1;PMS_P2;Temp;Humidity;BMP_temperature;BMP_pressure;BME280_temperature;BME280_humidity;BME280_pressure;Samples;Min_cycle;Max_cycle;Signal;HPM_P1;HPM_P2
2023/03/12 00:02:15;;;;;;;14.13;3.70;;;;;;;0.27;86.11;100920.47;5000663;28;22511;-72
2023/03/12 00:04:41;;;;;;;10.18;3.53;;;;;;;0.21;85.79;100925.09;5016923;28;20041;-72
2023/03/12 00:07:07;;;;;;;10.13;3.80;;;;;;;0.24;85.86;100919.84;4983385;28;20112;-72
2023/03/12 00:09:37;;;;;;;10.07;3.65;;;;;;;0.35;85.14;100909.84;5016251;28;20052;-72
2023/03/12 00:12:03;;;;;;;9.38;3.80;;;;;;;0.38;84.38;100912.22;4995134;28;20092;-72
2023/03/12 00:14:29;;;;;;;7.07;3.47;;;;;;;0.48;83.45;100912.53;4994854;28;20447;-72
2023/03/12 00:16:55;;;;;;;14.30;4.00;;;;;;;0.51;82.85;100904.66;5020602;28;20029;-72
2023/03/12 00:19:21;;;;;;;12.98;4.15;;;;;;;0.56;82.05;100906.03;5013839;28;20466;-72
2023/03/12 00:21:46;;;;;;;7.50;3.50;;;;;;;0.56;82.45;100905.22;4981361;28;20037;-72
2023/03/12 00:24:12;;;;;;;14.50;4.25;;;;;;;0.60;82.11;100908.44;4995267;28;20042;-72
2023/03/12 00:26:38;;;;;;;9.73;3.53;;;;;;;0.61;81.22;100908.34;4998706;28;20029;-72
2023/03/12 00:29:03;;;;;;;11.23;3.35;;;;;;;0.65;81.09;100911.56;5009205;28;20068;-72
2023/03/12 00:31:31;;;;;;;11.32;3.85;;;;;;;0.72;80.75;100906.00;5003977;28;20021;-72
2023/03/12 00:33:58;;;;;;;7.05;3.50;;;;;;;0.58;81.99;100908.50;5001754;28;20072;-72
2023/03/12 00:36:25;;;;;;;12.77;4.80;;;;;;;0.51;83.37;100905.50;5019977;28;20049;-73
2023/03/12 00:38:52;;;;;;;7.63;3.90;;;;;;;0.47;84.82;100896.41;4992800;28;20046;-72
2023/03/12 00:41:19;;;;;;;10.07;4.95;;;;;;;0.44;86.55;100904.22;5010143;28;20037;-72
2023/03/12 00:43:46;;;;;;;16.48;5.45;;;;;;;0.39;87.99;100901.91;5006131;28;20084;-73
2023/03/12 00:46:11;;;;;;;14.82;4.65;;;;;;;0.33;88.74;100891.25;5002557;28;20565;-72
2023/03/12 00:48:37;;;;;;;16.15;5.25;;;;;;;0.33;89.76;100894.63;5024680;28;20087;-72
2023/03/12 00:51:03;;;;;;;9.75;4.20;;;;;;;0.32;89.72;100887.88;5008962;28;20034;-72
2023/03/12 00:53:28;;;;;;;9.18;4.25;;;;;;;0.30;89.74;100883.75;5014599;28;20060;-72
2023/03/12 00:55:54;;;;;;;7.70;4.25;;;;;;;0.37;89.21;100879.97;5004990;28;20032;-72
2023/03/12 00:58:19;;;;;;;15.05;4.85;;;;;;;0.32;89.44;100876.84;5006140;28;20056;-72
2023/03/12 01:00:45;;;;;;;9.63;4.32;;;;;;;0.34;88.57;100880.13;4997402;28;20032;-72
2023/03/12 01:03:11;;;;;;;8.77;4.00;;;;;;;0.38;88.86;100873.97;5002987;28;20041;-72
2023/03/12 01:05:39;;;;;;;13.45;4.35;;;;;;;0.42;88.35;100867.78;4997521;28;20096;-72
2023/03/12 01:08:06;;;;;;;14.10;4.30;;;;;;;0.38;88.69;100871.41;5004289;28;20129;-72
2023/03/12 01:10:31;;;;;;;12.20;4.13;;;;;;;0.40;88.33;100869.59;5017358;28;20037;-72
2023/03/12 01:12:57;;;;;;;12.27;4.28;;;;;;;0.43;88.03;100858.38;5007026;28;20034;-72
2023/03/12 01:15:23;;;;;;;13.35;4.75;;;;;;;0.47;88.51;100858.13;5009177;28;20041;-72
2023/03/12 01:17:50;;;;;;;11.60;4.38;;;;;;;0.44;88.08;100852.38;5018955;28;20037;-72
2023/03/12 01:20:15;;;;;;;13.77;5.10;;;;;;;0.41;88.63;100857.66;5006103;28;20034;-72
2023/03/12 01:22:41;;;;;;;13.82;5.82;;;;;;;0.54;88.30;100859.38;5002511;28;20124;-72
2023/03/12 01:25:07;;;;;;;15.45;5.03;;;;;;;0.60;87.52;100857.38;4999746;28;20029;-72
2023/03/12 01:27:32;;;;;;;11.40;4.28;;;;;;;0.54;87.70;100846.63;5002961;28;20038;-72
2023/03/12 01:29:58;;;;;;;13.07;4.68;;;;;;;0.57;87.85;100843.91;4987527;28;20057;-72
2023/03/12 01:32:24;;;;;;;15.05;4.45;;;;;;;0.55;88.28;100838.06;5009044;28;20246;-72
2023/03/12 01:34:49;;;;;;;9.45;4.60;;;;;;;0.66;88.08;100829.78;5004837;28;20025;-72
2023/03/12 01:37:15;;;;;;;13.43;5.35;;;;;;;0.66;87.66;100831.50;4986029;28;20511;-72
2023/03/12 01:39:40;;;;;;;15.50;4.88;;;;;;;0.67;86.77;100828.84;4999872;28;20096;-72
2023/03/12 01:42:06;;;;;;;12.68;4.15;;;;;;;0.55;87.94;100832.16;5008381;28;20026;-72
2023/03/12 01:44:48;;;;;;;14.57;4.40;;;;;;;0.62;87.10;100832.59;4999280;28;20044;-72
2023/03/12 01:47:14;;;;;;;8.88;4.28;;;;;;;0.61;87.99;100828.41;4982063;28;20038;-72
2023/03/12 01:49:39;;;;;;;21.77;5.97;;;;;;;0.56;87.90;100829.47;5012656;28;20052;-72
2023/03/12 01:52:05;;;;;;;13.07;5.40;;;;;;;0.67;87.88;100835.69;5008695;28;20053;-72
2023/03/12 01:55:00;;;;;;;13.82;5.25;;;;;;;0.50;88.61;100831.59;5001610;28;20049;-72
2023/03/12 01:57:33;;;;;;;17.35;5.70;;;;;;;0.50;88.82;100837.50;5000499;28;20117;-72
2023/03/12 02:00:08;;;;;;;16.27;6.10;;;;;;;0.45;89.45;100836.94;4996348;28;20503;-72
2023/03/12 02:02:40;;;;;;;14.85;6.05;;;;;;;0.44;90.16;100821.75;5020497;28;20099;-73
2023/03/12 02:05:44;;;;;;;20.50;7.82;;;;;;;0.45;89.89;100814.00;5007823;28;20557;-72
2023/03/12 02:08:12;;;;;;;19.90;6.53;;;;;;;0.50;89.76;100800.97;4993650;28;20258;-72
2023/03/12 02:10:37;;;;;;;15.27;6.75;;;;;;;0.50;89.62;100800.97;5004621;28;20108;-72
2023/03/12 02:13:03;;;;;;;16.92;6.35;;;;;;;0.58;89.65;100807.28;5002583;28;20624;-72
2023/03/12 02:15:29;;;;;;;14.88;7.47;;;;;;;0.63;89.48;100806.97;4988516;28;20026;-72
2023/03/12 02:17:55;;;;;;;16.30;7.00;;;;;;;0.54;89.30;100802.44;4999132;28;20053;-72
2023/03/12 02:20:21;;;;;;;21.60;6.97;;;;;;;0.45;89.87;100803.78;5003784;28;20029;-73
2023/03/12 02:23:03;;;;;;;16.95;6.47;;;;;;;0.46;90.75;100805.44;5004366;28;20641;-73
2023/03/12 02:25:41;;;;;;;14.63;7.00;;;;;;;0.51;90.82;100815.34;5021816;28;20026;-72
2023/03/12 02:28:13;;;;;;;23.25;6.85;;;;;;;0.47;90.24;100814.75;4996845;28;20032;-72
2023/03/12 02:30:42;;;;;;;17.25;6.88;;;;;;;0.56;90.70;100803.16;4990124;28;20431;-72
2023/03/12 02:33:08;;;;;;;17.15;6.75;;;;;;;0.65;89.92;100799.25;4997179;28;20045;-72
2023/03/12 02:35:35;;;;;;;13.43;6.50;;;;;;;0.62;90.27;100794.31;5010502;28;20395;-72
2023/03/12 02:38:01;;;;;;;16.13;6.90;;;;;;;0.50;90.74;100798.41;4988610;28;20044;-72
2023/03/12 02:40:32;;;;;;;12.45;5.68;;;;;;;0.55;91.05;100786.22;4989217;28;20045;-72
2023/03/12 02:42:59;;;;;;;17.55;7.28;;;;;;;0.62;90.87;100784.09;4990010;28;20046;-73
2023/03/12 02:45:25;;;;;;;17.65;6.25;;;;;;;0.64;90.58;100779.72;4986648;28;20095;-72
2023/03/12 02:47:51;;;;;;;16.55;6.63;;;;;;;0.62;91.06;100763.69;4988196;28;20143;-72
2023/03/12 02:50:17;;;;;;;13.15;6.45;;;;;;;0.58;91.56;100763.88;5006044;28;20044;-72
2023/03/12 02:52:43;;;;;;;13.60;6.80;;;;;;;0.54;91.59;100766.69;4986745;28;20022;-73
2023/03/12 02:55:09;;;;;;;11.32;7.00;;;;;;;0.62;91.69;100746.63;4989828;28;20753;-72
2023/03/12 02:57:37;;;;;;;12.30;6.18;;;;;;;0.54;91.76;100747.09;5023347;28;20120;-72
2023/03/12 03:00:11;;;;;;;10.90;5.75;;;;;;;0.53;91.83;100753.13;4992875;28;20048;-72
2023/03/12 03:02:39;;;;;;;14.65;6.53;;;;;;;0.57;91.66;100769.88;4987819;28;20419;-72
2023/03/12 03:05:06;;;;;;;27.20;6.55;;;;;;;0.45;92.47;100764.69;4988168;28;20419;-72
2023/03/12 03:07:31;;;;;;;11.52;5.88;;;;;;;0.43;92.45;100759.69;5006794;28;20644;-72
2023/03/12 03:10:02;;;;;;;15.32;6.55;;;;;;;0.47;92.63;100765.41;4998757;28;20042;-72
2023/03/12 03:12:33;;;;;;;12.13;5.32;;;;;;;0.60;91.90;100758.66;5006165;28;20506;-72
2023/03/12 03:15:00;;;;;;;10.98;5.82;;;;;;;0.56;91.24;100759.78;4995108;28;20091;-72
2023/03/12 03:17:26;;;;;;;11.63;5.28;;;;;;;0.50;91.85;100755.03;4998301;28;20054;-72
2023/03/12 03:19:52;;;;;;;15.65;5.93;;;;;;;0.67;91.39;100759.13;5002018;28;20045;-73
2023/03/12 03:22:20;;;;;;;15.75;5.38;;;;;;;0.58;91.33;100763.88;4996916;28;20038;-72
2023/03/12 03:24:46;;;;;;;14.93;5.88;;;;;;;0.56;91.53;100763.13;4998174;28;20036;-72
2023/03/12 03:27:12;;;;;;;15.10;6.32;;;;;;;0.64;90.90;100755.03;5008124;28;20037;-72
2023/03/12 03:29:37;;;;;;;11.85;5.35;;;;;;;0.63;90.76;100755.94;5002962;28;20451;-72
2023/03/12 03:32:03;;;;;;;19.52;5.65;;;;;;;0.59;91.12;100762.16;5007078;28;20109;-72
2023/03/12 03:34:29;;;;;;;17.23;5.85;;;;;;;0.62;90.36;100751.72;4991471;28;20130;-72
2023/03/12 03:36:55;;;;;;;15.38;5.43;;;;;;;0.67;90.39;100754.84;4989943;28;20068;-72
2023/03/12 03:39:22;;;;;;;14.98;5.10;;;;;;;0.69;90.13;100760.66;5003427;28;20034;-71
2023/03/12 03:41:47;;;;;;;11.63;4.63;;;;;;;0.56;90.82;100765.69;4985754;28;20372;-71
2023/03/12 03:44:17;;;;;;;14.30;4.90;;;;;;;0.66;90.07;100757.47;4989879;28;20120;-72
2023/03/12 03:46:43;;;;;;;15.18;5.00;;;;;;;0.69;89.14;100758.13;5006915;28;20041;-72
2023/03/12 03:49:10;;;;;;;18.30;4.30;;;;;;;0.74;89.46;100762.97;4998503;28;20508;-72
2023/03/12 03:51:40;;;;;;;12.20;4.88;;;;;;;0.64;90.20;100764.41;5003889;28;20758;-72
2023/03/12 03:54:08;;;;;;;11.65;4.00;;;;;;;0.72;89.32;100757.94;4983683;28;20446;-72
2023/03/12 03:56:34;;;;;;;18.42;4.93;;;;;;;0.69;89.31;100747.91;5004191;28;20022;-72
2023/03/12 03:59:01;;;;;;;9.80;4.30;;;;;;;0.74;90.08;100751.00;4985673;28;20508;-73
2023/03/12 04:01:27;;;;;;;14.23;4.65;;;;;;;0.70;89.73;100746.19;4986516;28;20068;-72
2023/03/12 04:03:55;;;;;;;12.27;4.63;;;;;;;0.66;89.88;100749.81;4991990;28;20030;-72
2023/03/12 04:06:20;;;;;;;10.10;3.92;;;;;;;0.60;90.17;100751.00;5003139;28;20404;-72
2023/03/12 04:08:46;;;;;;;13.38;4.93;;;;;;;0.74;89.04;100751.00;5000828;28;20033;-72
2023/03/12 04:11:18;;;;;;;12.70;4.55;;;;;;;0.77;89.25;100752.53;5017809;28;20029;-72
2023/03/12 04:13:44;;;;;;;11.55;4.53;;;;;;;0.75;90.15;100749.25;5006749;28;20056;-72
2023/03/12 04:16:12;;;;;;;8.73;4.35;;;;;;;0.74;89.88;100760.41;5018487;28;20025;-72
2023/03/12 04:18:39;;;;;;;12.07;4.28;;;;;;;0.65;90.85;100756.66;4998664;28;20083;-73
2023/03/12 04:21:07;;;;;;;12.95;4.28;;;;;;;0.61;91.19;100757.78;5005158;28;20529;-72
2023/03/12 04:23:33;;;;;;;11.52;4.78;;;;;;;0.62;91.60;100751.72;5010608;28;20042;-73
2023/03/12 04:25:59;;;;;;;9.30;3.97;;;;;;;0.67;90.99;100746.38;4990466;28;20034;-72
2023/03/12 04:28:27;;;;;;;11.55;4.60;;;;;;;0.72;90.82;100739.25;5002131;28;20705;-72
2023/03/12 04:30:58;;;;;;;12.15;4.38;;;;;;;0.69;91.54;100742.81;4990188;28;20029;-72
2023/03/12 04:33:30;;;;;;;14.63;4.90;;;;;;;0.64;91.98;100739.72;5019888;28;22165;-73
2023/03/12 04:35:56;;;;;;;9.10;4.22;;;;;;;0.74;92.44;100734.88;5005265;28;20029;-72
2023/03/12 04:38:24;;;;;;;12.73;4.35;;;;;;;0.81;92.43;100741.25;5002949;28;20038;-72
2023/03/12 04:41:00;;;;;;;9.40;4.72;;;;;;;0.75;93.18;100729.69;4998390;28;20044;-72
2023/03/12 04:43:27;;;;;;;10.75;4.13;;;;;;;0.74;93.66;100730.59;4989290;28;20411;-72
2023/03/12 04:45:53;;;;;;;16.75;4.45;;;;;;;0.77;94.10;100724.47;5001480;28;20037;-72
2023/03/12 04:48:18;;;;;;;9.18;4.25;;;;;;;0.78;95.06;100701.41;5016150;28;20056;-72
2023/03/12 04:50:44;;;;;;;11.77;4.45;;;;;;;0.71;95.62;100704.41;4990287;28;20033;-72
2023/03/12 04:53:10;;;;;;;10.05;4.43;;;;;;;0.61;96.80;100703.38;4986102;28;20049;-72
2023/03/12 04:55:36;;;;;;;12.30;4.50;;;;;;;0.57;98.01;100685.69;5015785;28;20084;-72
2023/03/12 04:58:02;;;;;;;12.57;5.22;;;;;;;0.51;98.78;100690.31;5002214;28;20046;-73
2023/03/12 05:00:28;;;;;;;14.35;4.60;;;;;;;0.64;98.70;100691.22;5004590;28;20121;-72
2023/03/12 05:02:54;;;;;;;9.10;4.65;;;;;;;0.73;98.79;100667.66;4992261;28;20045;-73
2023/03/12 05:05:19;;;;;;;12.65;5.40;;;;;;;0.63;99.22;100661.50;5002422;28;20033;-72
2023/03/12 05:07:45;;;;;;;13.27;5.38;;;;;;;0.49;99.92;100658.97;5007896;28;20550;-72
2023/03/12 05:10:11;;;;;;;9.90;4.53;;;;;;;0.56;99.98;100650.03;4994931;28;20037;-72
2023/03/12 05:12:36;;;;;;;12.02;4.88;;;;;;;0.55;99.29;100641.56;5014312;23;20045;-81
2023/03/12 05:15:02;;;;;;;12.82;5.22;;;;;;;0.48;99.47;100652.25;5010053;28;20037;-79
2023/03/12 05:17:28;;;;;;;10.95;4.88;;;;;;;0.53;99.31;100658.72;4978189;28;20038;-79
2023/03/12 05:19:54;;;;;;;10.52;4.60;;;;;;;0.60;98.64;100651.47;4991961;28;20037;-78
2023/03/12 05:22:19;;;;;;;11.40;4.95;;;;;;;0.64;98.24;100664.88;5013549;23;20557;-73
2023/03/12 05:24:45;;;;;;;9.70;4.65;;;;;;;0.63;98.25;100660.69;5009974;28;20042;-74
2023/03/12 05:27:11;;;;;;;12.27;4.50;;;;;;;0.59;98.70;100667.72;5007931;28;20387;-73
2023/03/12 05:29:37;;;;;;;10.75;5.10;;;;;;;0.55;99.05;100658.63;4990692;28;20136;-73
2023/03/12 05:32:03;;;;;;;13.18;4.65;;;;;;;0.73;99.37;100649.78;5008111;28;20598;-74
2023/03/12 05:34:29;;;;;;;10.95;4.55;;;;;;;0.74;98.46;100640.44;4991993;28;20117;-73
2023/03/12 05:36:56;;;;;;;11.57;5.05;;;;;;;0.85;98.36;100635.47;5010236;28;20026;-74
2023/03/12 05:39:25;;;;;;;8.52;3.90;;;;;;;0.77;98.04;100637.66;5003302;28;20463;-71
2023/03/12 05:41:55;;;;;;;7.50;4.07;;;;;;;0.91;98.71;100634.25;4990325;28;20022;-73
2023/03/12 05:44:24;;;;;;;12.48;3.83;;;;;;;0.89;98.55;100626.69;4977233;28;20067;-73
2023/03/12 05:46:53;;;;;;;12.38;4.28;;;;;;;0.93;99.50;100615.34;5009413;28;20040;-73
2023/03/12 05:49:22;;;;;;;9.48;3.30;;;;;;;0.99;100.00;100608.22;4995407;28;20161;-74
2023/03/12 05:51:49;;;;;;;13.98;4.63;;;;;;;1.00;100.00;100604.75;4984725;28;20030;-73
2023/03/12 05:54:16;;;;;;;17.23;4.65;;;;;;;0.94;100.00;100617.00;4986243;28;20042;-74
2023/03/12 05:56:42;;;;;;;11.20;3.80;;;;;;;0.99;100.00;100600.56;5008150;28;20088;-74
2023/03/12 05:59:11;;;;;;;15.48;3.63;;;;;;;0.96;100.00;100612.63;5004252;28;20072;-74
2023/03/12 06:01:39;;;;;;;13.15;4.45;;;;;;;0.95;100.00;100607.59;5000941;28;20388;-74
2023/03/12 06:04:05;;;;;;;15.95;4.35;;;;;;;0.89;100.00;100601.16;4989905;28;20046;-74
2023/03/12 06:06:32;;;;;;;10.85;4.35;;;;;;;0.94;100.00;100600.84;4993529;28;20029;-74
2023/03/12 06:08:58;;;;;;;11.02;4.65;;;;;;;0.99;100.00;100595.47;5012534;28;20030;-74
2023/03/12 06:11:24;;;;;;;15.93;4.40;;;;;;;1.12;100.00;100584.34;4987943;28;20033;-71
2023/03/12 06:13:50;;;;;;;15.75;4.30;;;;;;;1.04;100.00;100590.88;4991239;28;20046;-74
2023/03/12 06:16:22;;;;;;;15.85;4.20;;;;;;;1.14;100.00;100591.91;4991950;28;20033;-74
2023/03/12 06:18:52;;;;;;;14.43;4.37;;;;;;;1.06;100.00;100591.59;4988414;28;20033;-74
2023/03/12 06:21:21;;;;;;;12.88;4.63;;;;;;;1.11;100.00;100589.53;4985318;28;20033;-73
2023/03/12 06:23:48;;;;;;;13.63;4.53;;;;;;;1.05;100.00;100590.75;4987509;28;20377;-74
2023/03/12 06:26:20;;;;;;;15.70;4.78;;;;;;;0.99;100.00;100600.56;5007651;28;20038;-74
2023/03/12 06:28:47;;;;;;;11.57;4.47;;;;;;;1.17;100.00;100597.63;5009969;28;20041;-74
2023/03/12 06:31:13;;;;;;;21.38;5.00;;;;;;;1.16;100.00;100605.41;4994407;28;20056;-74
2023/03/12 06:33:38;;;;;;;13.07;4.32;;;;;;;1.23;100.00;100603.28;5004882;28;20493;-74
2023/03/12 06:36:06;;;;;;;15.43;6.05;;;;;;;1.25;100.00;100607.34;4994155;28;20127;-74
2023/03/12 06:38:32;;;;;;;12.10;4.80;;;;;;;1.25;100.00;100611.66;5004510;28;20057;-74
2023/03/12 06:41:05;;;;;;;17.77;5.20;;;;;;;1.28;100.00;100607.16;4992847;28;20049;-73
2023/03/12 06:43:32;;;;;;;23.17;5.85;;;;;;;1.28;100.00;100596.09;4988582;28;20492;-74
2023/03/12 06:45:59;;;;;;;18.42;5.35;;;;;;;1.29;100.00;100601.13;5008823;28;20121;-73
2023/03/12 06:48:26;;;;;;;18.98;5.88;;;;;;;1.28;100.00;100607.16;4982296;28;20113;-73
2023/03/12 06:50:52;;;;;;;13.68;5.93;;;;;;;1.27;100.00;100608.06;4992485;28;20030;-73
2023/03/12 06:53:19;;;;;;;16.08;6.75;;;;;;;1.24;100.00;100604.88;5003109;28;20693;-73
2023/03/12 06:55:45;;;;;;;15.95;5.63;;;;;;;1.24;100.00;100602.34;4995488;28;20435;-73
2023/03/12 06:58:11;;;;;;;17.30;5.82;;;;;;;1.28;100.00;100607.16;4991738;28;20140;-73
2023/03/12 07:00:37;;;;;;;24.73;7.20;;;;;;;1.41;100.00;100609.72;4992563;28;20033;-73
2023/03/12 07:03:03;;;;;;;10.35;5.05;;;;;;;1.35;100.00;100605.00;5008859;28;20034;-73
2023/03/12 07:05:29;;;;;;;19.20;5.97;;;;;;;1.30;100.00;100602.78;5012222;28;20034;-73
2023/03/12 07:07:54;;;;;;;16.58;5.85;;;;;;;1.27;100.00;100599.59;4989688;28;20104;-73
2023/03/12 07:10:20;;;;;;;13.13;5.40;;;;;;;1.30;100.00;100590.00;5012135;28;20269;-73
2023/03/12 07:12:46;;;;;;;14.05;5.15;;;;;;;1.31;100.00;100583.13;4995840;28;20030;-73
2023/03/12 07:15:11;;;;;;;16.73;5.32;;;;;;;1.42;100.00;100579.88;5002933;28;20033;-73
2023/03/12 07:17:37;;;;;;;21.95;5.57;;;;;;;1.48;100.00;100592.25;4995648;28;20041;-73
2023/03/12 07:20:03;;;;;;;13.00;5.70;;;;;;;1.34;100.00;100581.19;5003374;28;20041;-73
2023/03/12 07:22:29;;;;;;;16.80;5.63;;;;;;;1.41;100.00;100583.34;4971525;28;20416;-73
2023/03/12 07:24:54;;;;;;;18.45;5.82;;;;;;;1.38;100.00;100573.34;5001605;28;20048;-73
2023/03/12 07:27:20;;;;;;;17.77;5.70;;;;;;;1.42;100.00;100580.69;4989667;28;20053;-73
2023/03/12 07:29:45;;;;;;;20.92;5.50;;;;;;;1.45;100.00;100575.38;4993618;28;20044;-73
2023/03/12 07:32:11;;;;;;;10.88;5.38;;;;;;;1.46;100.00;100581.31;4989451;28;20422;-73
2023/03/12 07:34:37;;;;;;;14.20;5.05;;;;;;;1.51;100.00;100574.97;5000920;28;21243;-73
2023/03/12 07:37:02;;;;;;;19.95;6.78;;;;;;;1.42;100.00;100575.56;5006329;28;20491;-73
2023/03/12 07:39:28;;;;;;;17.88;6.20;;;;;;;1.44;100.00;100581.41;4975491;28;20053;-73
2023/03/12 07:41:54;;;;;;;15.20;5.88;;;;;;;1.57;100.00;100581.41;5003895;28;20034;-73
2023/03/12 07:44:19;;;;;;;16.08;5.93;;;;;;;1.59;100.00;100583.88;4975293;28;20045;-73
2023/03/12 07:46:45;;;;;;;9.82;4.60;;;;;;;1.60;100.00;100573.53;5006444;28;20093;-72
2023/03/12 07:49:10;;;;;;;17.00;5.32;;;;;;;1.68;100.00;100570.47;4988694;28;20035;-73
2023/03/12 07:51:36;;;;;;;17.52;5.32;;;;;;;1.73;100.00;100570.94;5009223;28;20060;-73
2023/03/12 07:54:02;;;;;;;14.65;5.70;;;;;;;1.80;100.00;100573.91;5006904;28;20046;-73
2023/03/12 07:56:27;;;;;;;17.13;5.38;;;;;;;1.80;100.00;100579.03;4999761;28;20100;-73
2023/03/12 07:58:53;;;;;;;13.65;5.18;;;;;;;1.85;100.00;100590.59;5006573;28;20038;-73
2023/03/12 08:01:19;;;;;;;14.85;5.05;;;;;;;1.92;100.00;100583.28;5011108;28;20495;-73
2023/03/12 08:03:44;;;;;;;12.52;5.40;;;;;;;1.89;100.00;100586.09;4978345;28;20128;-73
2023/03/12 08:06:10;;;;;;;11.02;5.80;;;;;;;1.95;100.00;100586.47;4988653;28;20049;-73
2023/03/12 08:08:40;;;;;;;11.50;4.93;;;;;;;1.92;100.00;100588.41;5009709;28;20049;-73
2023/03/12 08:11:07;;;;;;;12.55;5.03;;;;;;;1.99;100.00;100587.06;4973333;28;20041;-73
2023/03/12 08:13:33;;;;;;;12.07;4.93;;;;;;;1.97;100.00;100593.22;4983701;28;20074;-73
2023/03/12 08:15:59;;;;;;;16.70;6.40;;;;;;;2.05;100.00;100575.59;4985113;28;20026;-73
2023/03/12 08:18:25;;;;;;;18.30;5.35;;;;;;;2.07;100.00;100582.25;5001962;28;20080;-73
2023/03/12 08:20:52;;;;;;;21.08;5.93;;;;;;;2.03;100.00;100588.50;5007935;28;20480;-74
2023/03/12 08:23:19;;;;;;;19.00;5.75;;;;;;;2.06;100.00;100585.72;5008393;28;20034;-73
2023/03/12 08:33:19;;;;;;;12.90;5.85;;;;;;;2.29;100.00;100573.06;5001640;28;20143;-74
2023/03/12 08:35:45;;;;;;;19.20;6.93;;;;;;;2.15;100.00;100584.28;4987629;28;20795;-74
2023/03/12 08:38:11;;;;;;;14.15;6.30;;;;;;;2.31;100.00;100577.16;4991681;28;20056;-74
2023/03/12 08:40:37;;;;;;;14.15;6.35;;;;;;;2.25;100.00;100567.34;5008596;28;20491;-74
2023/03/12 08:43:03;;;;;;;14.38;6.28;;;;;;;2.29;100.00;100571.31;5003576;28;20044;-74
2023/03/12 08:45:29;;;;;;;13.20;6.90;;;;;;;2.36;100.00;100576.84;5007680;28;20045;-74
2023/03/12 08:47:55;;;;;;;14.60;7.20;;;;;;;2.29;100.00;100584.13;4993243;28;20069;-74
2023/03/12 08:50:21;;;;;;;15.02;6.68;;;;;;;2.44;100.00;100577.09;4990955;28;20072;-74
2023/03/12 08:52:47;;;;;;;16.10;6.97;;;;;;;2.44;100.00;100581.41;4992603;28;20460;-74
2023/03/12 08:55:13;;;;;;;16.52;7.10;;;;;;;2.52;100.00;100587.63;4976498;28;20034;-74
2023/03/12 08:57:39;;;;;;;17.25;7.60;;;;;;;2.55;100.00;100571.22;4989001;28;20041;-74
2023/03/12 09:00:28;;;;;;;13.15;6.68;;;;;;;2.58;100.00;100573.59;5008490;28;20033;-74
2023/03/12 09:02:57;;;;;;;13.70;7.25;;;;;;;2.58;100.00;100581.25;4962009;28;20033;-74
2023/03/12 09:05:23;;;;;;;13.82;7.50;;;;;;;2.51;100.00;100593.66;4994898;28;20395;-74
2023/03/12 09:07:49;;;;;;;15.70;6.95;;;;;;;2.62;100.00;100589.50;4977729;28;20030;-74
2023/03/12 09:10:18;;;;;;;13.43;8.27;;;;;;;2.75;100.00;100584.34;4994331;28;22389;-75
2023/03/12 09:13:11;;;;;;;14.75;7.93;;;;;;;2.86;100.00;100584.38;4948658;28;20054;-74
2023/03/12 09:15:39;;;;;;;13.23;6.43;;;;;;;2.97;100.00;100588.72;4949246;28;20087;-74
2023/03/12 09:18:05;;;;;;;15.07;8.52;;;;;;;2.99;100.00;100589.44;4951070;28;20843;-74
2023/03/12 09:20:31;;;;;;;18.25;8.55;;;;;;;2.90;100.00;100596.88;5006700;28;20030;-74
2023/03/12 09:22:56;;;;;;;14.75;7.63;;;;;;;2.99;100.00;100594.56;4987382;28;20042;-74
2023/03/12 09:25:22;;;;;;;16.70;7.95;;;;;;;3.06;100.00;100593.19;5003866;28;20041;-74
2023/03/12 09:27:48;;;;;;;18.13;7.93;;;;;;;3.12;100.00;100585.03;4963947;28;20044;-74
2023/03/12 09:30:16;;;;;;;15.93;8.07;;;;;;;3.09;100.00;100583.53;4988421;28;20123;-74
2023/03/12 09:32:44;;;;;;;15.65;7.95;;;;;;;3.07;100.00;100590.53;5000099;28;20037;-74
2023/03/12 09:35:09;;;;;;;12.43;8.10;;;;;;;3.07;100.00;100603.34;4988577;28;20473;-74
2023/03/12 09:37:35;;;;;;;14.05;7.47;;;;;;;3.18;100.00;100609.41;4987602;28;20105;-76
2023/03/12 09:40:03;;;;;;;16.02;8.18;;;;;;;3.17;100.00;100611.16;4993139;28;20026;-74
2023/03/12 09:43:01;;;;;;;16.50;7.82;;;;;;;3.19;100.00;100614.41;4988159;28;20400;-74
2023/03/12 09:45:31;;;;;;;14.30;7.65;;;;;;;3.22;100.00;100610.81;4986338;28;20062;-74
2023/03/12 09:48:00;;;;;;;16.77;9.20;;;;;;;3.38;100.00;100613.06;4993114;28;20033;-75
2023/03/12 09:50:28;;;;;;;13.40;9.60;;;;;;;3.33;100.00;100610.84;4993080;28;20160;-74
2023/03/12 09:53:05;;;;;;;16.42;9.52;;;;;;;3.40;100.00;100612.00;5005103;28;20032;-74
2023/03/12 09:55:39;;;;;;;17.40;10.43;;;;;;;3.42;100.00;100611.91;4990407;28;20275;-74
2023/03/12 09:58:33;;;;;;;20.60;12.23;;;;;;;3.57;100.00;100618.44;5003611;28;20041;-74
2023/03/12 10:01:04;;;;;;;;;;;;;;;3.50;100.00;100612.97;4996335;28;20839;-72
2023/03/12 10:03:39;;;;;;;18.98;10.15;;;;;;;3.64;100.00;100618.81;4972602;28;19917;-73
2023/03/12 10:06:13;;;;;;;16.05;10.20;;;;;;;3.64;100.00;100619.63;5003632;28;20042;-74
2023/03/12 10:09:23;;;;;;;12.95;8.82;;;;;;;3.74;100.00;100619.75;5005464;28;20645;-72
2023/03/12 10:12:00;;;;;;;16.30;9.30;;;;;;;3.85;100.00;100621.50;4892404;29;20040;-73
2023/03/12 10:14:44;;;;;;;15.57;8.70;;;;;;;3.88;100.00;100636.66;4976502;28;20050;-74
2023/03/12 10:17:36;;;;;;;14.88;8.75;;;;;;;3.99;100.00;100633.28;5005481;28;20056;-72
2023/03/12 10:20:27;;;;;;;14.23;8.93;;;;;;;3.98;100.00;100631.66;4983803;28;20078;-72
2023/03/12 10:23:12;;;;;;;16.20;9.60;;;;;;;4.06;100.00;100629.31;4986655;28;20033;-74
2023/03/12 10:25:56;;;;;;;15.60;10.07;;;;;;;4.24;100.00;100639.91;5003968;28;20044;-74
2023/03/12 10:28:36;;;;;;;14.88;9.63;;;;;;;4.33;100.00;100636.63;5001872;28;20050;-72
2023/03/12 10:31:20;;;;;;;20.25;11.40;;;;;;;4.42;100.00;100638.47;5002077;28;20121;-72
2023/03/12 10:33:55;;;;;;;20.48;11.10;;;;;;;4.62;100.00;100633.53;5004465;28;20045;-72
2023/03/12 10:40:26;;;;;;;24.60;12.68;;;;;;;5.22;100.00;100646.72;5005250;28;20075;-72
2023/03/12 10:42:51;;;;;;;82.38;29.27;;;;;;;5.28;100.00;100656.50;5005361;28;20061;-72
2023/03/12 10:45:26;;;;;;;29.73;14.18;;;;;;;5.61;100.00;100655.50;5007010;28;20165;-72
2023/03/12 10:48:06;;;;;;;32.22;15.85;;;;;;;5.83;100.00;100658.84;4974331;28;20406;-72
2023/03/12 11:06:32;;;;;;;23.55;10.20;;;;;;;6.51;100.00;100678.91;5007042;28;20048;-72
2023/03/12 11:55:12;;;;;;;47.05;12.68;;;;;;;7.74;100.00;100686.06;5001721;28;20041;-73
2023/03/12 12:21:30;;;;;;;87.13;27.80;;;;;;;8.66;100.00;100635.34;5007734;28;20036;-73
2023/03/12 12:28:29;;;;;;;53.08;13.18;;;;;;;8.94;100.00;100618.78;5005050;28;20137;-73
2023/03/12 12:53:53;;;;;;;46.05;7.30;;;;;;;9.77;100.00;100541.63;5010050;28;20092;-72
2023/03/12 12:56:40;;;;;;;39.60;7.22;;;;;;;9.61;100.00;100532.03;4995714;28;20676;-73
2023/03/12 13:07:12;;;;;;;34.42;7.70;;;;;;;9.60;100.00;100515.66;4945194;28;20640;-73
2023/03/12 13:09:38;;;;;;;39.83;6.90;;;;;;;9.61;100.00;100511.31;4975836;28;20096;-72
2023/03/12 13:12:28;;;;;;;31.75;5.18;;;;;;;9.45;100.00;100506.88;4994386;28;20034;-73
2023/03/12 13:14:56;;;;;;;30.33;5.63;;;;;;;9.43;100.00;100506.22;5008178;28;20100;-73
2023/03/12 13:17:22;;;;;;;30.80;5.43;;;;;;;9.41;100.00;100497.81;4992349;28;20037;-72
2023/03/12 13:19:50;;;;;;;37.05;7.15;;;;;;;9.46;100.00;100495.56;4990323;28;20096;-73
2023/03/12 13:22:29;;;;;;;44.58;7.65;;;;;;;9.34;100.00;100503.59;5010484;28;20041;-72
2023/03/12 13:25:13;;;;;;;35.25;5.32;;;;;;;9.51;100.00;100501.06;5002946;28;20045;-73
2023/03/12 13:27:44;;;;;;;39.85;5.53;;;;;;;9.47;100.00;100502.34;4966986;28;20037;-72
2023/03/12 13:41:45;;;;;;;32.53;5.22;;;;;;;9.86;100.00;100497.47;5006826;28;20048;-72
2023/03/12 13:44:27;;;;;;;45.28;8.48;;;;;;;9.71;100.00;100486.09;5001801;28;20046;-72
2023/03/12 13:47:00;;;;;;;34.00;5.78;;;;;;;9.73;100.00;100484.16;4990212;28;20639;-72
2023/03/12 13:49:34;;;;;;;34.53;6.43;;;;;;;9.61;100.00;100475.88;5007864;28;20044;-72
2023/03/12 13:52:15;;;;;;;38.85;5.40;;;;;;;9.64;100.00;100465.19;5008065;28;20029;-73
2023/03/12 13:54:44;;;;;;;37.70;5.55;;;;;;;9.66;100.00;100475.38;5005860;28;20040;-72